South Haven, Minnesota
Current Conditions -  °F | °C
As of 2:14 PM on Friday 24 Oct 2014 (Local Time) from KMGG Reporting Station
Clear Clear  
Wind Chill: 67°   Ceiling: Unl
Heat Index: 67°   Visibility: 10mi
Dew Point: 55°   Wind: 5mph
Humidity: 65%   Direction: 190°S
Pressure: 29.83"   Gusts: NA
Location:  45.29°N, 94.21°W
Report Text: KMGG 241914Z AUTO 19004KT 10SM CLR 19/13 A2983 RMK AO2 T01920125
Loading
Personal Weather Stations






























Interactive Weather Map
Tropical Storm Tracking
New forecast layout! Learn more

10-Day Weather Forecast

Advertisements
Track Severe Weather on mobile